createdAt,value
2022-08-31T00:02:39.458Z,0.45
2022-08-31T00:05:06.961Z,0.38
2022-08-31T00:07:35.064Z,0.28
2022-08-31T00:10:14.175Z,0.38
2022-08-31T00:12:42.279Z,3.20
2022-08-31T00:15:11.099Z,0.40
2022-08-31T00:17:37.815Z,1.52
2022-08-31T00:20:09.038Z,0.20
2022-08-31T00:22:55.805Z,0.63
2022-08-31T00:25:24.055Z,1.42
2022-08-31T00:27:50.875Z,0.22
2022-08-31T00:30:17.475Z,0.35
2022-08-31T00:32:43.937Z,1.23
2022-08-31T00:35:10.372Z,0.65
2022-08-31T00:37:36.839Z,0.05
2022-08-31T00:40:05.081Z,0.20
2022-08-31T00:42:32.874Z,0.38
2022-08-31T00:44:59.323Z,0.70
2022-08-31T00:47:25.809Z,0.30
2022-08-31T00:49:53.075Z,0.88
2022-08-31T00:52:33.200Z,0.20
2022-08-31T00:55:15.806Z,0.60
2022-08-31T00:57:48.030Z,0.20
2022-08-31T01:00:18.410Z,0.55
2022-08-31T01:02:45.351Z,0.68
2022-08-31T01:05:14.598Z,0.22
2022-08-31T01:07:41.842Z,1.15
2022-08-31T01:10:09.536Z,0.30
2022-08-31T01:12:36.984Z,0.50
2022-08-31T01:15:06.537Z,1.50
2022-08-31T01:17:35.118Z,0.10
2022-08-31T01:20:16.308Z,0.85
2022-08-31T01:23:11.079Z,0.73
2022-08-31T01:28:07.374Z,1.02
2022-08-31T01:30:35.023Z,0.52
2022-08-31T01:33:01.749Z,0.75
2022-08-31T01:35:29.483Z,0.30
2022-08-31T01:37:57.428Z,0.90
2022-08-31T01:40:44.721Z,0.20
2022-08-31T01:43:11.195Z,0.25
2022-08-31T01:45:37.651Z,0.22
2022-08-31T01:48:05.012Z,0.88
2022-08-31T01:50:31.628Z,0.98
2022-08-31T01:52:58.074Z,0.70
2022-08-31T01:55:24.636Z,0.60
2022-08-31T01:57:51.133Z,0.10
2022-08-31T02:00:17.795Z,0.52
2022-08-31T02:02:44.325Z,0.50
2022-08-31T02:05:12.123Z,0.52
2022-08-31T02:07:38.633Z,0.75
2022-08-31T02:10:05.912Z,0.32
2022-08-31T02:12:32.373Z,1.23
2022-08-31T02:14:58.871Z,1.77
2022-08-31T02:17:25.400Z,0.60
2022-08-31T02:19:51.831Z,0.45
2022-08-31T02:22:18.374Z,1.02
2022-08-31T02:24:44.927Z,0.60
2022-08-31T02:27:11.491Z,2.25
2022-08-31T02:29:38.028Z,0.57
2022-08-31T02:32:05.042Z,0.22
2022-08-31T02:34:31.541Z,1.65
2022-08-31T02:36:58.772Z,3.20
2022-08-31T02:39:25.740Z,0.85
2022-08-31T02:41:52.871Z,1.75
2022-08-31T02:44:19.354Z,1.23
2022-08-31T02:46:45.944Z,1.63
2022-08-31T02:49:12.484Z,0.88
2022-08-31T02:51:41.170Z,0.77
2022-08-31T02:54:08.245Z,0.10
2022-08-31T02:56:34.923Z,0.20
2022-08-31T02:59:01.382Z,0.43
2022-08-31T03:01:28.073Z,0.10
2022-08-31T03:03:55.004Z,0.65
2022-08-31T03:06:22.798Z,0.20
2022-08-31T03:08:49.859Z,0.28
2022-08-31T03:11:18.571Z,0.45
2022-08-31T03:13:45.415Z,0.25
2022-08-31T03:16:14.558Z,0.82
2022-08-31T03:18:41.930Z,0.30
2022-08-31T03:21:08.422Z,0.63
2022-08-31T03:23:34.867Z,1.15
2022-08-31T03:26:01.407Z,0.60
2022-08-31T03:28:27.851Z,0.75
2022-08-31T03:30:54.350Z,0.63
2022-08-31T03:33:20.986Z,0.80
2022-08-31T03:35:47.483Z,0.10
2022-08-31T03:38:15.813Z,1.05
2022-08-31T03:40:43.855Z,0.40
2022-08-31T03:43:11.618Z,0.80
2022-08-31T03:45:42.521Z,1.08
2022-08-31T03:48:12.850Z,2.03
2022-08-31T03:50:40.941Z,0.32
2022-08-31T03:53:08.464Z,0.30
2022-08-31T03:55:39.194Z,2.15
2022-08-31T03:58:07.851Z,1.65
2022-08-31T04:00:35.799Z,1.65
2022-08-31T04:03:02.616Z,1.02
2022-08-31T04:05:30.989Z,1.15
2022-08-31T04:07:58.497Z,0.80
2022-08-31T04:10:25.332Z,5.05
2022-08-31T04:12:52.072Z,1.13
2022-08-31T04:15:19.160Z,1.27
2022-08-31T04:17:46.505Z,2.47
2022-08-31T04:20:13.645Z,1.27
2022-08-31T04:22:40.319Z,1.83
2022-08-31T04:25:07.264Z,2.63
2022-08-31T04:27:33.688Z,4.82
2022-08-31T04:30:00.192Z,2.97
2022-08-31T04:32:26.715Z,3.20
2022-08-31T04:34:56.332Z,1.13
2022-08-31T04:37:23.158Z,1.15
2022-08-31T04:39:51.251Z,4.18
2022-08-31T04:42:18.895Z,10.02
2022-08-31T04:44:45.349Z,3.25
2022-08-31T04:47:11.812Z,7.28
2022-08-31T04:49:38.621Z,8.77
2022-08-31T04:52:05.419Z,7.25
2022-08-31T04:54:32.316Z,11.00
2022-08-31T04:56:59.237Z,14.63
2022-08-31T04:59:27.389Z,17.30
2022-08-31T05:01:54.734Z,11.20
2022-08-31T05:04:25.952Z,16.15
2022-08-31T05:06:52.526Z,14.40
2022-08-31T05:09:22.753Z,13.52
2022-08-31T05:11:52.092Z,17.02
2022-08-31T05:14:21.366Z,15.38
2022-08-31T05:16:47.991Z,13.70
2022-08-31T05:19:14.515Z,17.33
2022-08-31T05:21:42.825Z,20.02
2022-08-31T05:24:15.494Z,14.98
2022-08-31T05:26:48.101Z,16.58
2022-08-31T05:29:16.639Z,19.60
2022-08-31T05:31:47.058Z,13.70
2022-08-31T05:34:17.596Z,16.30
2022-08-31T05:36:48.940Z,10.57
2022-08-31T05:39:15.734Z,18.88
2022-08-31T05:41:44.448Z,13.10
2022-08-31T05:44:11.856Z,12.68
2022-08-31T05:46:39.328Z,12.50
2022-08-31T05:49:08.237Z,15.95
2022-08-31T05:51:38.670Z,14.57
2022-08-31T05:54:07.151Z,12.00
2022-08-31T05:56:34.626Z,13.60
2022-08-31T05:59:01.177Z,13.63
2022-08-31T06:01:33.243Z,16.08
2022-08-31T06:04:00.807Z,10.43
2022-08-31T06:06:28.098Z,10.23
2022-08-31T06:08:55.391Z,6.63
2022-08-31T06:11:25.262Z,11.48
2022-08-31T06:13:54.243Z,8.57
2022-08-31T06:16:22.891Z,11.10
2022-08-31T06:18:50.743Z,12.00
2022-08-31T06:21:23.855Z,7.80
2022-08-31T06:23:51.949Z,11.65
2022-08-31T06:26:21.962Z,6.03
2022-08-31T06:28:51.395Z,9.88
2022-08-31T06:31:31.013Z,7.43
2022-08-31T06:33:58.462Z,9.40
2022-08-31T06:36:28.296Z,8.52
2022-08-31T06:38:56.295Z,11.63
2022-08-31T06:41:25.682Z,10.52
2022-08-31T06:43:52.139Z,6.00
2022-08-31T06:46:20.220Z,9.75
2022-08-31T06:48:47.896Z,9.20
2022-08-31T06:51:14.385Z,7.43
2022-08-31T06:53:42.517Z,5.20
2022-08-31T06:56:20.900Z,8.80
2022-08-31T06:58:53.573Z,6.40
2022-08-31T07:01:35.608Z,7.97
2022-08-31T07:04:07.130Z,5.25
2022-08-31T07:06:44.438Z,5.07
2022-08-31T07:09:15.959Z,6.05
2022-08-31T07:11:47.612Z,6.10
2022-08-31T07:14:16.535Z,5.78
2022-08-31T07:16:45.462Z,5.90
2022-08-31T07:19:13.620Z,5.40
2022-08-31T07:21:42.764Z,4.75
2022-08-31T07:24:11.625Z,4.43
2022-08-31T07:26:45.068Z,4.75
2022-08-31T07:29:14.976Z,4.47
2022-08-31T07:31:46.488Z,3.03
2022-08-31T07:34:16.008Z,4.63
2022-08-31T07:37:01.818Z,3.05
2022-08-31T07:39:48.525Z,2.67
2022-08-31T07:42:25.298Z,6.05
2022-08-31T07:44:53.852Z,3.72
2022-08-31T07:47:22.712Z,4.40
2022-08-31T07:49:52.596Z,3.33
2022-08-31T07:52:21.814Z,4.97
2022-08-31T07:54:49.419Z,2.47
2022-08-31T07:57:16.434Z,3.13
2022-08-31T07:59:42.949Z,2.67
2022-08-31T08:02:12.931Z,2.88
2022-08-31T08:04:43.055Z,4.57
2022-08-31T08:07:11.212Z,4.05
2022-08-31T08:09:38.851Z,2.13
2022-08-31T08:12:08.895Z,2.35
2022-08-31T08:14:37.768Z,2.25
2022-08-31T08:17:06.702Z,2.95
2022-08-31T08:19:33.875Z,2.33
2022-08-31T08:22:02.932Z,1.83
2022-08-31T08:24:32.628Z,2.05
2022-08-31T08:26:59.315Z,2.33
2022-08-31T08:29:27.225Z,3.60
2022-08-31T08:31:56.293Z,3.38
2022-08-31T08:34:29.694Z,2.47
2022-08-31T08:36:58.863Z,1.17
2022-08-31T08:39:25.430Z,1.50
2022-08-31T08:41:55.882Z,1.48
2022-08-31T08:44:26.915Z,3.60
2022-08-31T08:46:59.264Z,1.70
2022-08-31T08:49:28.434Z,2.35
2022-08-31T08:52:27.344Z,1.48
2022-08-31T08:54:56.367Z,4.65
2022-08-31T08:57:26.918Z,1.00
2022-08-31T09:00:07.875Z,1.30
2022-08-31T09:02:46.771Z,1.45
2022-08-31T09:05:35.219Z,1.52
2022-08-31T09:08:23.539Z,2.67
2022-08-31T09:11:08.955Z,1.30
2022-08-31T09:13:49.080Z,1.13
2022-08-31T09:16:39.021Z,1.00
2022-08-31T09:19:17.271Z,1.98
2022-08-31T09:21:56.439Z,1.40
2022-08-31T09:24:26.767Z,1.55
2022-08-31T09:27:18.050Z,0.63
2022-08-31T09:29:53.818Z,1.63
2022-08-31T09:32:31.425Z,0.70
2022-08-31T09:35:01.684Z,0.32
2022-08-31T09:37:33.606Z,2.75
2022-08-31T09:40:23.421Z,0.85
2022-08-31T09:43:08.375Z,2.20
2022-08-31T09:45:42.532Z,0.70
2022-08-31T09:48:09.635Z,0.43
2022-08-31T09:50:45.300Z,1.20
2022-08-31T09:53:45.412Z,0.40
2022-08-31T09:56:17.936Z,0.77
2022-08-31T09:59:02.881Z,0.77
2022-08-31T10:01:34.052Z,0.98
2022-08-31T10:04:20.987Z,0.40
2022-08-31T10:07:28.658Z,0.55
2022-08-31T10:10:02.033Z,0.90
2022-08-31T10:12:52.598Z,0.63
2022-08-31T10:15:44.145Z,1.50
2022-08-31T10:18:39.581Z,0.88
2022-08-31T10:21:12.261Z,0.30
2022-08-31T10:23:42.898Z,0.73
2022-08-31T10:26:20.362Z,0.65
2022-08-31T10:28:53.933Z,0.50
2022-08-31T10:31:48.094Z,0.63
2022-08-31T10:37:16.049Z,0.50
2022-08-31T10:39:54.172Z,0.30
2022-08-31T10:42:37.375Z,0.70
2022-08-31T10:45:19.185Z,0.82
2022-08-31T10:47:49.107Z,0.63
2022-08-31T10:50:30.267Z,0.40
2022-08-31T10:53:35.986Z,0.70
2022-08-31T10:56:14.904Z,1.58
2022-08-31T10:59:29.191Z,0.50
2022-08-31T11:02:13.538Z,0.43
2022-08-31T11:04:50.538Z,0.22
2022-08-31T11:07:39.139Z,0.95
2022-08-31T11:10:16.531Z,0.28
2022-08-31T11:12:52.078Z,0.30
2022-08-31T11:15:28.864Z,0.55
2022-08-31T11:18:20.210Z,0.43
2022-08-31T11:20:58.741Z,0.30
2022-08-31T11:23:48.653Z,0.52
2022-08-31T11:26:34.598Z,0.30
2022-08-31T11:29:10.029Z,0.55
2022-08-31T11:31:38.946Z,0.20
2022-08-31T11:34:17.323Z,0.32
2022-08-31T11:36:50.193Z,0.50
2022-08-31T11:39:35.973Z,0.45
2022-08-31T11:42:26.762Z,1.48
2022-08-31T11:45:29.977Z,0.20
2022-08-31T11:47:57.494Z,0.82
2022-08-31T11:50:36.590Z,1.05
2022-08-31T11:53:31.762Z,0.63
2022-08-31T11:56:05.059Z,0.38
2022-08-31T11:58:34.633Z,0.53
2022-08-31T12:01:26.727Z,0.40
2022-08-31T12:04:03.762Z,0.30
2022-08-31T12:06:34.034Z,0.63
2022-08-31T12:09:38.312Z,0.32
2022-08-31T12:12:27.803Z,2.08
2022-08-31T12:15:15.926Z,0.22
2022-08-31T12:18:04.828Z,0.63
2022-08-31T12:21:27.803Z,0.80
2022-08-31T12:24:16.572Z,0.50
2022-08-31T12:27:05.220Z,0.28
2022-08-31T12:29:34.810Z,0.60
2022-08-31T12:32:22.852Z,1.08
2022-08-31T12:34:58.335Z,1.52
2022-08-31T12:37:28.018Z,0.98
2022-08-31T12:40:12.334Z,3.30
2022-08-31T12:46:07.136Z,3.63
2022-08-31T12:49:18.041Z,2.17
2022-08-31T12:51:49.484Z,2.40
2022-08-31T12:54:21.700Z,1.05
2022-08-31T12:56:57.219Z,5.35
2022-08-31T13:00:00.467Z,2.60
2022-08-31T13:02:31.526Z,1.80
2022-08-31T13:05:00.098Z,1.83
2022-08-31T13:07:35.296Z,2.10
2022-08-31T13:10:06.337Z,0.82
2022-08-31T13:12:32.871Z,0.95
2022-08-31T13:14:59.399Z,2.60
2022-08-31T13:17:25.979Z,5.75
2022-08-31T13:19:55.578Z,2.22
2022-08-31T13:22:41.744Z,1.45
2022-08-31T13:25:36.153Z,0.95
2022-08-31T13:28:10.749Z,2.22
2022-08-31T13:30:39.778Z,1.40
2022-08-31T13:33:31.377Z,2.90
2022-08-31T13:36:38.666Z,1.90
2022-08-31T13:39:15.822Z,4.32
2022-08-31T13:42:06.268Z,0.50
2022-08-31T13:44:39.857Z,1.90
2022-08-31T13:47:25.010Z,1.20
2022-08-31T13:50:07.185Z,0.98
2022-08-31T13:52:35.643Z,1.88
2022-08-31T13:55:24.350Z,1.50
2022-08-31T13:58:03.895Z,2.03
2022-08-31T14:00:43.017Z,2.83
2022-08-31T14:03:45.021Z,2.92
2022-08-31T14:06:23.783Z,0.40
2022-08-31T14:09:05.499Z,0.82
2022-08-31T14:11:33.659Z,0.63
2022-08-31T14:14:07.371Z,1.85
2022-08-31T14:16:43.377Z,0.52
2022-08-31T14:19:12.028Z,2.60
2022-08-31T14:21:42.282Z,0.50
2022-08-31T14:24:12.211Z,0.30
2022-08-31T14:26:43.983Z,0.43
2022-08-31T14:29:14.011Z,1.13
2022-08-31T14:31:51.979Z,0.43
2022-08-31T14:34:22.063Z,0.47
2022-08-31T14:36:59.361Z,1.27
2022-08-31T14:39:32.694Z,0.57
2022-08-31T14:42:08.548Z,0.30
2022-08-31T14:44:40.517Z,0.77
2022-08-31T14:47:09.572Z,2.25
2022-08-31T14:49:36.931Z,1.65
2022-08-31T14:52:06.691Z,0.75
2022-08-31T14:54:37.013Z,2.42
2022-08-31T14:57:08.374Z,0.43
2022-08-31T14:59:36.041Z,2.53
2022-08-31T15:02:02.607Z,0.28
2022-08-31T15:04:31.706Z,1.33
2022-08-31T15:07:09.646Z,0.40
2022-08-31T15:09:39.411Z,1.20
2022-08-31T15:12:06.090Z,2.30
2022-08-31T15:14:36.898Z,0.10
2022-08-31T15:17:06.745Z,1.23
2022-08-31T15:19:39.143Z,0.10
2022-08-31T15:22:10.012Z,0.63
2022-08-31T15:24:40.519Z,0.22
2022-08-31T15:27:14.483Z,1.35
2022-08-31T15:29:46.677Z,0.35
2022-08-31T15:32:16.916Z,0.45
2022-08-31T15:34:49.921Z,7.70
2022-08-31T15:37:16.940Z,0.95
2022-08-31T15:39:48.810Z,0.70
2022-08-31T15:42:21.083Z,0.50
2022-08-31T15:45:07.159Z,2.03
2022-08-31T15:47:54.791Z,0.40
2022-08-31T15:50:27.021Z,2.00
2022-08-31T15:53:09.542Z,1.98
2022-08-31T15:55:40.464Z,1.15
2022-08-31T15:58:09.357Z,1.98
2022-08-31T16:00:36.652Z,0.88
2022-08-31T16:03:03.734Z,1.80
2022-08-31T16:05:35.548Z,4.10
2022-08-31T16:08:02.649Z,0.90
2022-08-31T16:10:29.692Z,3.05
2022-08-31T16:12:56.153Z,2.92
2022-08-31T16:15:24.852Z,1.85
2022-08-31T16:17:52.383Z,1.23
2022-08-31T16:20:18.979Z,1.00
2022-08-31T16:22:45.515Z,0.40
2022-08-31T16:25:14.032Z,0.98
2022-08-31T16:27:40.903Z,3.05
2022-08-31T16:30:09.509Z,2.65
2022-08-31T16:32:36.175Z,1.95
2022-08-31T16:35:04.471Z,0.30
2022-08-31T16:37:31.906Z,0.82
2022-08-31T16:39:58.465Z,1.73
2022-08-31T16:42:25.090Z,1.20
2022-08-31T16:44:51.656Z,1.65
2022-08-31T16:47:19.183Z,1.30
2022-08-31T16:49:46.734Z,2.40
2022-08-31T16:52:21.361Z,0.90
2022-08-31T16:54:51.027Z,2.28
2022-08-31T16:57:26.991Z,1.77
2022-08-31T16:59:55.101Z,2.72
2022-08-31T17:02:23.138Z,2.83
2022-08-31T17:04:53.437Z,4.45
2022-08-31T17:07:21.933Z,2.70
2022-08-31T17:09:48.897Z,1.88
2022-08-31T17:12:19.089Z,1.33
2022-08-31T17:14:49.592Z,3.15
2022-08-31T17:17:19.019Z,3.88
2022-08-31T17:19:46.846Z,0.80
2022-08-31T17:22:24.506Z,2.35
2022-08-31T17:24:57.431Z,1.00
2022-08-31T17:27:25.096Z,2.28
2022-08-31T17:29:53.907Z,4.10
2022-08-31T17:32:26.128Z,0.95
2022-08-31T17:34:54.473Z,0.65
2022-08-31T17:37:32.266Z,0.40
2022-08-31T17:39:59.048Z,0.10
2022-08-31T17:42:26.936Z,0.30
2022-08-31T17:44:54.572Z,0.35
2022-08-31T17:47:23.563Z,0.30
2022-08-31T17:49:50.835Z,0.55
2022-08-31T17:52:20.324Z,1.27
2022-08-31T17:54:46.971Z,0.28
2022-08-31T17:57:15.384Z,0.75
2022-08-31T17:59:48.276Z,0.17
2022-08-31T18:02:21.496Z,1.17
2022-08-31T18:04:48.892Z,0.38
2022-08-31T18:07:15.768Z,1.13
2022-08-31T18:09:46.855Z,5.80
2022-08-31T18:12:15.195Z,0.30
2022-08-31T18:14:42.013Z,0.30
2022-08-31T18:17:11.784Z,1.92
2022-08-31T18:19:39.348Z,0.22
2022-08-31T18:22:06.771Z,0.25
2022-08-31T18:24:35.740Z,0.30
2022-08-31T18:27:07.033Z,0.40
2022-08-31T18:29:35.797Z,0.85
2022-08-31T18:32:05.068Z,2.25
2022-08-31T18:34:34.810Z,2.65
2022-08-31T18:37:02.311Z,1.13
2022-08-31T18:39:51.203Z,2.38
2022-08-31T18:42:37.689Z,1.67
2022-08-31T18:45:18.623Z,2.25
2022-08-31T18:48:07.033Z,0.65
2022-08-31T18:50:37.065Z,4.20
2022-08-31T18:53:11.241Z,0.50
2022-08-31T18:55:45.569Z,0.52
2022-08-31T18:58:12.555Z,1.70
2022-08-31T19:00:40.163Z,2.92
2022-08-31T19:03:07.303Z,3.53
2022-08-31T19:05:38.008Z,0.98
2022-08-31T19:08:04.452Z,0.73
2022-08-31T19:10:30.927Z,1.55
2022-08-31T19:12:57.475Z,0.75
2022-08-31T19:15:31.483Z,1.27
2022-08-31T19:18:01.877Z,2.88
2022-08-31T19:20:29.283Z,1.00
2022-08-31T19:22:56.067Z,2.70
2022-08-31T19:25:22.935Z,2.67
2022-08-31T19:27:51.936Z,3.08
2022-08-31T19:30:24.458Z,2.05
2022-08-31T19:32:53.649Z,5.30
2022-08-31T19:35:20.296Z,1.90
2022-08-31T19:37:47.316Z,2.00
2022-08-31T19:40:17.783Z,0.40
2022-08-31T19:43:41.891Z,2.33
2022-08-31T19:45:43.183Z,2.95
2022-08-31T19:48:12.071Z,0.80
2022-08-31T19:50:42.121Z,2.42
2022-08-31T19:53:11.405Z,2.08
2022-08-31T19:55:37.891Z,1.40
2022-08-31T19:58:05.043Z,0.70
2022-08-31T20:00:35.998Z,1.10
2022-08-31T20:03:04.280Z,1.38
2022-08-31T20:05:31.414Z,0.68
2022-08-31T20:07:57.882Z,3.45
2022-08-31T20:10:24.355Z,1.52
2022-08-31T20:12:56.391Z,3.22
2022-08-31T20:15:23.034Z,1.85
2022-08-31T20:17:51.379Z,4.30
2022-08-31T20:20:18.159Z,2.92
2022-08-31T20:22:46.451Z,1.95
2022-08-31T20:25:17.988Z,1.35
2022-08-31T20:27:46.027Z,3.90
2022-08-31T20:30:17.057Z,3.05
2022-08-31T20:32:43.526Z,2.88
2022-08-31T20:35:13.498Z,0.70
2022-08-31T20:37:40.646Z,5.57
2022-08-31T20:40:10.936Z,1.83
2022-08-31T20:42:37.438Z,3.58
2022-08-31T20:45:04.262Z,5.43
2022-08-31T20:47:49.470Z,1.85
2022-08-31T20:50:16.959Z,1.88
2022-08-31T20:52:43.560Z,0.50
2022-08-31T20:55:15.476Z,0.80
2022-08-31T20:57:41.930Z,0.57
2022-08-31T21:00:10.463Z,4.25
2022-08-31T21:02:39.757Z,1.65
2022-08-31T21:05:36.683Z,1.80
2022-08-31T21:07:57.468Z,1.08
2022-08-31T21:10:32.603Z,0.57
2022-08-31T21:13:02.904Z,0.70
2022-08-31T21:15:29.334Z,2.70
2022-08-31T21:17:56.770Z,2.33
2022-08-31T21:20:23.652Z,0.80
2022-08-31T21:22:50.218Z,0.82
2022-08-31T21:25:17.538Z,1.30
2022-08-31T21:27:44.075Z,1.42
2022-08-31T21:30:11.364Z,0.95
2022-08-31T21:32:41.398Z,0.50
2022-08-31T21:35:12.291Z,2.75
2022-08-31T21:37:38.836Z,1.85
2022-08-31T21:40:06.362Z,0.80
2022-08-31T21:42:32.946Z,1.23
2022-08-31T21:44:59.495Z,1.00
2022-08-31T21:47:26.181Z,0.60
2022-08-31T21:49:53.380Z,1.45
2022-08-31T21:52:20.106Z,1.08
2022-08-31T21:54:47.954Z,0.63
2022-08-31T21:57:15.603Z,2.28
2022-08-31T21:59:42.261Z,0.45
2022-08-31T22:02:11.296Z,0.70
2022-08-31T22:04:43.193Z,1.35
2022-08-31T22:07:11.842Z,0.93
2022-08-31T22:09:38.402Z,1.40
2022-08-31T22:12:07.103Z,2.58
2022-08-31T22:14:37.195Z,0.40
2022-08-31T22:17:07.043Z,0.75
2022-08-31T22:19:38.894Z,5.60
2022-08-31T22:22:09.016Z,0.63
2022-08-31T22:24:39.450Z,0.47
2022-08-31T22:27:08.523Z,1.80
2022-08-31T22:29:38.790Z,0.65
2022-08-31T22:32:09.372Z,0.20
2022-08-31T22:34:37.369Z,1.38
2022-08-31T22:37:04.509Z,1.38
2022-08-31T22:39:32.217Z,0.30
2022-08-31T22:42:01.394Z,1.35
2022-08-31T22:44:32.276Z,0.93
2022-08-31T22:46:59.167Z,0.28
2022-08-31T22:49:27.067Z,1.95
2022-08-31T22:51:54.303Z,0.73
2022-08-31T22:54:21.767Z,0.80
2022-08-31T22:56:49.058Z,0.47
2022-08-31T22:59:18.398Z,0.75
2022-08-31T23:01:54.902Z,0.38
2022-08-31T23:04:25.139Z,0.47
2022-08-31T23:06:52.633Z,0.52
2022-08-31T23:09:21.851Z,0.38
2022-08-31T23:11:51.445Z,0.30
2022-08-31T23:14:19.682Z,0.57
2022-08-31T23:16:51.681Z,0.68
2022-08-31T23:19:21.763Z,0.40
2022-08-31T23:21:53.026Z,0.30
2022-08-31T23:24:31.319Z,0.52
2022-08-31T23:27:03.833Z,3.50
2022-08-31T23:29:35.181Z,0.22
2022-08-31T23:32:02.811Z,0.32
2022-08-31T23:34:29.373Z,0.45
2022-08-31T23:36:57.077Z,0.40
2022-08-31T23:39:24.551Z,0.47
2022-08-31T23:41:53.265Z,0.70
2022-08-31T23:44:21.134Z,0.80
2022-08-31T23:46:48.672Z,0.75
2022-08-31T23:49:18.396Z,0.30
2022-08-31T23:51:45.292Z,0.28
2022-08-31T23:54:12.448Z,0.50
2022-08-31T23:56:41.751Z,0.20
2022-08-31T23:59:11.099Z,1.10
